Iver Agile — IBHW — position and weather

sailwx.info

Track history (hours):
 
Tides and Currents Weather Stations Pressure Air Temp Water Temp Dewpoint Dewpoint Depression Visibility Wind Speed Wind Dir Waves Ship Positions

Iver Agile

Last reported at 2017-Apr-21 16:48 UTC. Time now 2017-Apr-28 14:07 UTC.
Position N 09°33' W 079°49'.

Length 110 m; draft 5 m.

Type: Ship. MMSI: 247103700.

Date/timePositionNaut miles runAvg speedWind from/ knotsBaromVisibWave heightAir tempDewpointWater temp
2017-Apr-21 16:48N 09°33' W 079°49'513.5
2017-Apr-21 16:27N 09°29' W 079°52'612.6
2017-Apr-21 16:00N 09°24' W 079°55'2 3.2
2017-Apr-21 15:29N 09°23' W 079°55'0 0.0
2017-Apr-21 14:59N 09°23' W 079°55'0 0.0
2017-Apr-21 14:28N 09°23' W 079°55'0 0.0
2017-Apr-21 13:29N 09°23' W 079°55'0 0.0
2017-Apr-21 12:58N 09°23' W 079°55'0 0.0
2017-Apr-21 12:29N 09°23' W 079°55'0 0.0
2017-Apr-21 11:58N 09°23' W 079°55'0 0.0
2017-Apr-21 11:29N 09°23' W 079°55'0 0.0
2017-Apr-21 10:59N 09°23' W 079°55'0 0.1
2017-Apr-21 10:28N 09°23' W 079°55'0 0.0
2017-Apr-21 09:58N 09°23' W 079°55'0 0.1
2017-Apr-21 09:25N 09°23' W 079°55'0 0.0
2017-Apr-21 08:58N 09°23' W 079°55'0 0.0
2017-Apr-21 08:29N 09°23' W 079°55'0 0.0
2017-Apr-21 07:50N 09°23' W 079°55'0 0.0
2017-Apr-21 07:28N 09°23' W 079°55'0 0.0
2017-Apr-21 06:58N 09°23' W 079°55'0 0.0
2017-Apr-21 06:26N 09°23' W 079°55'0 0.1
2017-Apr-21 05:58N 09°23' W 079°55'0 0.0
2017-Apr-21 05:29N 09°23' W 079°55'0 0.0
2017-Apr-21 04:58N 09°23' W 079°55'0 0.1
2017-Apr-21 04:29N 09°23' W 079°55'0 0.6
2017-Apr-21 04:00N 09°23' W 079°55'1 2.1
2017-Apr-21 03:30N 09°24' W 079°55'1 1.5
2017-Apr-21 03:00N 09°24' W 079°56'1 2.4
2017-Apr-21 02:30N 09°24' W 079°57'0 0.1
2017-Apr-21 02:00N 09°24' W 079°57'0 0.0
2017-Apr-21 01:30N 09°24' W 079°57'0 0.0
2017-Apr-21 00:54N 09°24' W 079°57'1 1.7
2017-Apr-21 00:30N 09°24' W 079°56'3 6.3
2017-Apr-21 00:00N 09°26' W 079°53'4 8.2
2017-Apr-20 23:30N 09°25' W 079°49'1 0.0
2017-Apr-19 17:34N 09°24' W 079°49'0 0.0
2017-Apr-19 17:28N 09°24' W 079°49'0 0.0
2017-Apr-19 16:58N 09°24' W 079°49'0 0.0
2017-Apr-19 16:30N 09°24' W 079°49'1 2.5
2017-Apr-19 16:00N 09°25' W 079°50'2 3.9
2017-Apr-19 15:30N 09°27' W 079°50'0 0.7
2017-Apr-19 15:00N 09°27' W 079°49'0 0.4
2017-Apr-19 14:30N 09°27' W 079°49'0 0.0
2017-Apr-19 13:25N 09°27' W 079°49'0 0.0
2017-Apr-19 12:58N 09°27' W 079°49'0 0.0
2017-Apr-19 12:28N 09°27' W 079°49'0 0.0
2017-Apr-19 11:58N 09°27' W 079°49'0 0.0
2017-Apr-19 11:22N 09°27' W 079°49'0 0.1
2017-Apr-19 10:22N 09°27' W 079°49'0 0.1
2017-Apr-19 09:58N 09°27' W 079°49'0 0.0
2017-Apr-19 09:28N 09°27' W 079°49'0 0.2
2017-Apr-19 08:55N 09°27' W 079°49'1 1.7
2017-Apr-19 08:29N 09°27' W 079°50'510.7
2017-Apr-19 08:00N 09°32' W 079°51'  
Track history (hours):
 
Tides and Currents Weather Stations Pressure Air Temp Water Temp Dewpoint Dewpoint Depression Visibility Wind Speed Wind Dir Waves Ship Positions

Iver Agile

Last reported at 2017-Apr-21 16:48 UTC. Time now 2017-Apr-28 14:07 UTC.
Position N 09°33' W 079°49'.

Length 110 m; draft 5 m.

Type: Ship. MMSI: 247103700.

Date/timePositionNaut miles runAvg speedWind from/ knotsBaromVisibWave heightAir tempDewpointWater temp
2017-Apr-21 16:48N 09°33' W 079°49'513.5
2017-Apr-21 16:27N 09°29' W 079°52'612.6
2017-Apr-21 16:00N 09°24' W 079°55'2 3.2
2017-Apr-21 15:29N 09°23' W 079°55'0 0.0
2017-Apr-21 14:59N 09°23' W 079°55'0 0.0
2017-Apr-21 14:28N 09°23' W 079°55'0 0.0
2017-Apr-21 13:29N 09°23' W 079°55'0 0.0
2017-Apr-21 12:58N 09°23' W 079°55'0 0.0
2017-Apr-21 12:29N 09°23' W 079°55'0 0.0
2017-Apr-21 11:58N 09°23' W 079°55'0 0.0
2017-Apr-21 11:29N 09°23' W 079°55'0 0.0
2017-Apr-21 10:59N 09°23' W 079°55'0 0.1
2017-Apr-21 10:28N 09°23' W 079°55'0 0.0
2017-Apr-21 09:58N 09°23' W 079°55'0 0.1
2017-Apr-21 09:25N 09°23' W 079°55'0 0.0
2017-Apr-21 08:58N 09°23' W 079°55'0 0.0
2017-Apr-21 08:29N 09°23' W 079°55'0 0.0
2017-Apr-21 07:50N 09°23' W 079°55'0 0.0
2017-Apr-21 07:28N 09°23' W 079°55'0 0.0
2017-Apr-21 06:58N 09°23' W 079°55'0 0.0
2017-Apr-21 06:26N 09°23' W 079°55'0 0.1
2017-Apr-21 05:58N 09°23' W 079°55'0 0.0
2017-Apr-21 05:29N 09°23' W 079°55'0 0.0
2017-Apr-21 04:58N 09°23' W 079°55'0 0.1
2017-Apr-21 04:29N 09°23' W 079°55'0 0.6
2017-Apr-21 04:00N 09°23' W 079°55'1 2.1
2017-Apr-21 03:30N 09°24' W 079°55'1 1.5
2017-Apr-21 03:00N 09°24' W 079°56'1 2.4
2017-Apr-21 02:30N 09°24' W 079°57'0 0.1
2017-Apr-21 02:00N 09°24' W 079°57'0 0.0
2017-Apr-21 01:30N 09°24' W 079°57'0 0.0
2017-Apr-21 00:54N 09°24' W 079°57'1 1.7
2017-Apr-21 00:30N 09°24' W 079°56'3 6.3
2017-Apr-21 00:00N 09°26' W 079°53'4 8.2
2017-Apr-20 23:30N 09°25' W 079°49'1 0.0
2017-Apr-19 17:34N 09°24' W 079°49'0 0.0
2017-Apr-19 17:28N 09°24' W 079°49'0 0.0
2017-Apr-19 16:58N 09°24' W 079°49'0 0.0
2017-Apr-19 16:30N 09°24' W 079°49'1 2.5
2017-Apr-19 16:00N 09°25' W 079°50'2 3.9
2017-Apr-19 15:30N 09°27' W 079°50'0 0.7
2017-Apr-19 15:00N 09°27' W 079°49'0 0.4
2017-Apr-19 14:30N 09°27' W 079°49'0 0.0
2017-Apr-19 13:25N 09°27' W 079°49'0 0.0
2017-Apr-19 12:58N 09°27' W 079°49'0 0.0
2017-Apr-19 12:28N 09°27' W 079°49'0 0.0
2017-Apr-19 11:58N 09°27' W 079°49'0 0.0
2017-Apr-19 11:22N 09°27' W 079°49'0 0.1
2017-Apr-19 10:22N 09°27' W 079°49'0 0.1
2017-Apr-19 09:58N 09°27' W 079°49'0 0.0
2017-Apr-19 09:28N 09°27' W 079°49'0 0.2
2017-Apr-19 08:55N 09°27' W 079°49'1 1.7
2017-Apr-19 08:29N 09°27' W 079°50'510.7
2017-Apr-19 08:00N 09°32' W 079°51'  

Dump ship's entire track history